createdAt,value
2018-05-12T00:00:26.578Z,15.26
2018-05-12T00:02:52.524Z,15.26
2018-05-12T00:05:18.453Z,15.24
2018-05-12T00:07:44.401Z,15.22
2018-05-12T00:10:10.341Z,15.20
2018-05-12T00:12:36.286Z,15.13
2018-05-12T00:15:02.213Z,15.12
2018-05-12T00:17:28.137Z,15.13
2018-05-12T00:19:54.061Z,15.09
2018-05-12T00:22:19.983Z,15.12
2018-05-12T00:24:45.913Z,15.19
2018-05-12T00:27:11.826Z,15.22
2018-05-12T00:29:37.756Z,15.29
2018-05-12T00:32:03.662Z,15.25
2018-05-12T00:34:29.584Z,15.28
2018-05-12T00:36:55.536Z,15.30
2018-05-12T00:39:21.458Z,15.31
2018-05-12T00:41:47.378Z,15.34
2018-05-12T00:44:13.301Z,15.36
2018-05-12T00:46:39.246Z,15.32
2018-05-12T00:49:05.200Z,15.32
2018-05-12T00:51:31.137Z,15.35
2018-05-12T00:53:57.076Z,15.28
2018-05-12T00:56:23.037Z,15.33
2018-05-12T00:58:48.950Z,15.27
2018-05-12T01:01:14.900Z,15.23
2018-05-12T01:03:40.830Z,15.05
2018-05-12T01:06:06.765Z,15.06
2018-05-12T01:08:32.723Z,15.07
2018-05-12T01:10:58.641Z,15.06
2018-05-12T01:13:24.584Z,15.05
2018-05-12T01:15:50.500Z,15.01
2018-05-12T01:18:16.450Z,14.95
2018-05-12T01:20:42.380Z,14.94
2018-05-12T01:23:08.332Z,14.96
2018-05-12T01:25:34.255Z,14.94
2018-05-12T01:28:00.172Z,14.78
2018-05-12T01:30:26.141Z,14.73
2018-05-12T01:32:52.066Z,14.69
2018-05-12T01:35:18.014Z,14.73
2018-05-12T01:37:43.924Z,14.75
2018-05-12T01:40:09.837Z,14.72
2018-05-12T01:42:35.757Z,14.72
2018-05-12T01:45:01.683Z,14.71
2018-05-12T01:47:27.607Z,14.62
2018-05-12T01:49:53.531Z,14.56
2018-05-12T01:52:19.457Z,14.53
2018-05-12T01:54:45.360Z,14.47
2018-05-12T01:57:11.284Z,14.40
2018-05-12T01:59:37.215Z,14.42
2018-05-12T02:02:03.142Z,14.37
2018-05-12T02:04:29.066Z,14.33
2018-05-12T02:06:54.966Z,14.34
2018-05-12T02:09:20.899Z,14.28
2018-05-12T02:11:46.810Z,14.20
2018-05-12T02:14:12.721Z,14.19
2018-05-12T02:16:38.630Z,14.18
2018-05-12T02:19:04.551Z,14.10
2018-05-12T02:21:30.564Z,14.03
2018-05-12T02:23:56.480Z,14.02
2018-05-12T02:26:22.433Z,14.06
2018-05-12T02:28:48.359Z,14.03
2018-05-12T02:31:14.278Z,14.01
2018-05-12T02:33:40.234Z,14.01
2018-05-12T02:36:06.137Z,14.03
2018-05-12T02:38:32.061Z,14.01
2018-05-12T02:40:58.013Z,13.90
2018-05-12T02:43:23.937Z,13.89
2018-05-12T02:45:49.867Z,13.91
2018-05-12T02:48:15.771Z,13.79
2018-05-12T02:50:41.695Z,13.78
2018-05-12T02:53:07.632Z,13.83
2018-05-12T02:55:33.555Z,13.87
2018-05-12T02:57:59.507Z,13.90
2018-05-12T03:00:25.437Z,13.92
2018-05-12T03:02:51.349Z,13.89
2018-05-12T03:05:17.241Z,13.94
2018-05-12T03:07:43.174Z,13.98
2018-05-12T03:10:09.089Z,13.94
2018-05-12T03:12:35.080Z,13.90
2018-05-12T03:15:00.934Z,13.87
2018-05-12T03:17:26.857Z,13.82
2018-05-12T03:19:52.765Z,13.78
2018-05-12T03:22:18.687Z,13.73
2018-05-12T03:24:44.587Z,13.67
2018-05-12T03:27:10.526Z,13.65
2018-05-12T03:29:36.438Z,13.66
2018-05-12T03:32:02.345Z,13.63
2018-05-12T03:34:28.260Z,13.63
2018-05-12T03:36:54.187Z,13.60
2018-05-12T03:39:20.189Z,13.54
2018-05-12T03:41:46.048Z,13.57
2018-05-12T03:44:11.980Z,13.61
2018-05-12T03:46:37.894Z,13.64
2018-05-12T03:49:03.840Z,13.63
2018-05-12T03:51:29.748Z,13.66
2018-05-12T03:53:55.664Z,13.68
2018-05-12T03:56:21.606Z,13.71
2018-05-12T03:58:47.538Z,13.73
2018-05-12T04:01:13.464Z,13.79
2018-05-12T04:03:39.389Z,13.79
2018-05-12T04:06:17.530Z,13.83
2018-05-12T04:08:56.580Z,13.80
2018-05-12T04:11:34.714Z,13.80
2018-05-12T04:14:00.634Z,13.74
2018-05-12T04:16:26.557Z,13.80
2018-05-12T04:18:52.463Z,13.80
2018-05-12T04:21:18.385Z,13.82
2018-05-12T04:23:44.295Z,13.92
2018-05-12T04:26:10.197Z,13.99
2018-05-12T04:28:38.741Z,14.02
2018-05-12T04:31:04.660Z,14.05
2018-05-12T04:33:30.562Z,14.10
2018-05-12T04:35:56.495Z,14.10
2018-05-12T04:38:22.417Z,14.22
2018-05-12T04:40:48.344Z,14.22
2018-05-12T04:43:14.280Z,14.22
2018-05-12T04:45:40.191Z,14.21
2018-05-12T04:48:06.111Z,14.28
2018-05-12T04:50:32.033Z,14.37
2018-05-12T04:52:57.969Z,14.39
2018-05-12T04:55:23.884Z,14.42
2018-05-12T04:57:49.817Z,14.48
2018-05-12T05:00:15.733Z,14.45
2018-05-12T05:02:41.654Z,14.37
2018-05-12T05:05:07.577Z,14.44
2018-05-12T05:07:33.511Z,14.50
2018-05-12T05:09:59.409Z,14.45
2018-05-12T05:12:25.330Z,14.49
2018-05-12T05:14:51.256Z,14.53
2018-05-12T05:17:17.181Z,14.66
2018-05-12T05:19:43.117Z,14.70
2018-05-12T05:22:09.043Z,14.76
2018-05-12T05:24:34.980Z,14.84
2018-05-12T05:27:00.902Z,14.93
2018-05-12T05:29:26.824Z,14.94
2018-05-12T05:31:52.749Z,14.98
2018-05-12T05:34:18.679Z,15.06
2018-05-12T05:36:44.600Z,15.10
2018-05-12T05:39:10.535Z,15.15
2018-05-12T05:41:36.532Z,15.29
2018-05-12T05:44:02.475Z,15.34
2018-05-12T05:46:28.421Z,15.46
2018-05-12T05:48:54.373Z,15.57
2018-05-12T05:51:20.315Z,15.67
2018-05-12T05:53:46.225Z,15.73
2018-05-12T05:56:12.151Z,15.78
2018-05-12T05:58:38.091Z,15.84
2018-05-12T06:01:04.611Z,15.90
2018-05-12T06:03:30.566Z,15.96
2018-05-12T06:05:56.482Z,16.02
2018-05-12T06:08:22.432Z,16.04
2018-05-12T06:10:48.347Z,16.09
2018-05-12T06:13:14.255Z,16.14
2018-05-12T06:15:40.195Z,16.15
2018-05-12T06:18:06.238Z,16.16
2018-05-12T06:20:32.080Z,16.18
2018-05-12T06:22:58.052Z,16.22
2018-05-12T06:25:23.988Z,16.17
2018-05-12T06:27:49.939Z,16.07
2018-05-12T06:30:15.878Z,16.11
2018-05-12T06:32:41.802Z,16.20
2018-05-12T06:35:07.721Z,16.21
2018-05-12T06:37:33.637Z,16.29
2018-05-12T06:39:59.608Z,16.31
2018-05-12T06:42:26.261Z,16.35
2018-05-12T06:44:52.227Z,16.37
2018-05-12T06:47:18.178Z,16.45
2018-05-12T06:49:44.084Z,16.54
2018-05-12T06:52:10.025Z,16.56
2018-05-12T06:54:35.966Z,16.63
2018-05-12T06:57:01.884Z,16.64
2018-05-12T06:59:27.802Z,16.68
2018-05-12T07:01:53.741Z,16.69
2018-05-12T07:04:19.651Z,16.61
2018-05-12T07:06:45.575Z,16.68
2018-05-12T07:09:11.509Z,16.70
2018-05-12T07:11:37.453Z,16.80
2018-05-12T07:14:03.387Z,16.98
2018-05-12T07:16:29.322Z,17.14
2018-05-12T07:18:55.255Z,17.25
2018-05-12T07:21:21.175Z,17.32
2018-05-12T07:23:47.113Z,17.33
2018-05-12T07:26:13.026Z,17.45
2018-05-12T07:28:38.950Z,17.54
2018-05-12T07:31:04.865Z,17.53
2018-05-12T07:33:30.799Z,17.48
2018-05-12T07:35:56.724Z,17.54
2018-05-12T07:38:22.654Z,17.56
2018-05-12T07:40:48.596Z,17.51
2018-05-12T07:43:14.528Z,17.55
2018-05-12T07:45:40.458Z,17.48
2018-05-12T07:48:06.767Z,17.62
2018-05-12T07:50:32.711Z,17.67
2018-05-12T07:52:58.654Z,17.72
2018-05-12T07:55:24.595Z,17.83
2018-05-12T07:57:50.522Z,17.98
2018-05-12T08:00:16.464Z,17.98
2018-05-12T08:02:42.394Z,17.95
2018-05-12T08:05:08.340Z,18.04
2018-05-12T08:07:34.267Z,18.05
2018-05-12T08:10:00.184Z,18.07
2018-05-12T08:12:26.115Z,18.04
2018-05-12T08:14:52.058Z,17.98
2018-05-12T08:17:18.003Z,17.99
2018-05-12T08:19:43.927Z,18.02
2018-05-12T08:22:09.870Z,18.09
2018-05-12T08:24:35.787Z,18.17
2018-05-12T08:27:01.710Z,18.21
2018-05-12T08:29:27.667Z,18.26
2018-05-12T08:31:53.615Z,18.26
2018-05-12T08:34:19.541Z,18.24
2018-05-12T08:36:45.467Z,18.33
2018-05-12T08:39:11.412Z,18.35
2018-05-12T08:41:37.351Z,18.43
2018-05-12T08:44:03.307Z,18.48
2018-05-12T08:46:29.227Z,18.57
2018-05-12T08:48:55.169Z,18.59
2018-05-12T08:51:21.115Z,18.66
2018-05-12T08:53:47.041Z,18.68
2018-05-12T08:56:12.945Z,18.75
2018-05-12T08:58:38.871Z,18.86
2018-05-12T09:01:04.773Z,18.83
2018-05-12T09:03:30.697Z,18.96
2018-05-12T09:05:57.401Z,18.96
2018-05-12T09:08:23.320Z,19.11
2018-05-12T09:10:49.237Z,19.16
2018-05-12T09:13:15.186Z,19.15
2018-05-12T09:15:41.127Z,19.15
2018-05-12T09:18:07.042Z,19.12
2018-05-12T09:20:33.002Z,19.07
2018-05-12T09:22:58.988Z,19.02
2018-05-12T09:25:24.870Z,19.04
2018-05-12T09:27:50.825Z,18.90
2018-05-12T09:30:16.774Z,18.79
2018-05-12T09:32:42.712Z,18.84
2018-05-12T09:35:08.614Z,19.07
2018-05-12T09:37:34.555Z,19.32
2018-05-12T09:40:00.486Z,19.58
2018-05-12T09:42:26.504Z,19.51
2018-05-12T09:44:52.412Z,19.85
2018-05-12T09:47:18.383Z,20.15
2018-05-12T09:49:44.290Z,20.19
2018-05-12T09:52:10.213Z,20.23
2018-05-12T09:54:36.154Z,20.13
2018-05-12T09:57:02.056Z,20.01
2018-05-12T09:59:28.085Z,19.87
2018-05-12T10:01:53.937Z,19.86
2018-05-12T10:04:19.854Z,19.87
2018-05-12T10:06:45.768Z,19.85
2018-05-12T10:09:11.736Z,19.99
2018-05-12T10:11:37.665Z,20.36
2018-05-12T10:14:03.645Z,20.46
2018-05-12T10:16:29.553Z,20.62
2018-05-12T10:18:55.503Z,20.59
2018-05-12T10:21:21.435Z,20.73
2018-05-12T10:23:47.362Z,20.65
2018-05-12T10:26:13.294Z,20.73
2018-05-12T10:28:39.232Z,20.77
2018-05-12T10:31:05.193Z,20.79
2018-05-12T10:33:31.133Z,20.83
2018-05-12T10:35:57.078Z,21.11
2018-05-12T10:38:23.002Z,21.28
2018-05-12T10:40:48.938Z,21.24
2018-05-12T10:43:14.866Z,21.21
2018-05-12T10:45:40.814Z,21.17
2018-05-12T10:48:06.721Z,21.47
2018-05-12T10:50:32.658Z,21.78
2018-05-12T10:52:58.601Z,21.95
2018-05-12T10:55:24.519Z,21.98
2018-05-12T10:57:50.442Z,22.35
2018-05-12T11:00:16.357Z,22.57
2018-05-12T11:02:42.378Z,22.34
2018-05-12T11:05:08.304Z,22.18
2018-05-12T11:07:49.165Z,22.40
2018-05-12T11:10:15.092Z,22.42
2018-05-12T11:12:41.032Z,22.21
2018-05-12T11:15:06.971Z,21.99
2018-05-12T11:17:32.889Z,21.91
2018-05-12T11:19:58.809Z,21.85
2018-05-12T11:22:24.700Z,21.57
2018-05-12T11:24:50.623Z,21.54
2018-05-12T11:27:16.547Z,21.55
2018-05-12T11:29:42.499Z,21.42
2018-05-12T11:32:08.453Z,21.38
2018-05-12T11:34:34.403Z,21.12
2018-05-12T11:37:00.315Z,21.38
2018-05-12T11:39:26.270Z,21.58
2018-05-12T11:41:52.185Z,21.70
2018-05-12T11:44:18.095Z,21.73
2018-05-12T11:46:44.044Z,22.43
2018-05-12T11:49:09.971Z,22.28
2018-05-12T11:51:35.910Z,22.37
2018-05-12T11:54:01.951Z,23.23
2018-05-12T11:56:27.810Z,23.86
2018-05-12T11:58:53.768Z,24.25
2018-05-12T12:01:19.716Z,24.38
2018-05-12T12:03:45.734Z,23.78
2018-05-12T12:06:11.632Z,23.21
2018-05-12T12:08:37.576Z,23.15
2018-05-12T12:11:03.508Z,23.83
2018-05-12T12:13:29.454Z,24.41
2018-05-12T12:15:55.374Z,24.53
2018-05-12T12:18:21.340Z,24.57
2018-05-12T12:20:47.286Z,24.17
2018-05-12T12:23:13.247Z,23.65
2018-05-12T12:25:39.180Z,24.45
2018-05-12T12:28:05.151Z,24.52
2018-05-12T12:30:31.101Z,23.95
2018-05-12T12:32:57.058Z,24.70
2018-05-12T12:35:22.969Z,25.58
2018-05-12T12:37:48.925Z,26.24
2018-05-12T12:40:14.855Z,26.10
2018-05-12T12:42:40.764Z,26.19
2018-05-12T12:45:06.815Z,26.32
2018-05-12T12:47:32.691Z,25.53
2018-05-12T12:49:58.657Z,25.02
2018-05-12T12:52:24.589Z,24.68
2018-05-12T12:54:50.515Z,24.09
2018-05-12T12:57:16.439Z,23.69
2018-05-12T12:59:42.358Z,23.92
2018-05-12T13:02:08.291Z,24.38
2018-05-12T13:04:34.231Z,24.72
2018-05-12T13:07:00.151Z,24.60
2018-05-12T13:09:26.087Z,24.54
2018-05-12T13:11:52.035Z,24.38
2018-05-12T13:14:17.970Z,24.20
2018-05-12T13:16:43.896Z,23.70
2018-05-12T13:19:09.807Z,23.67
2018-05-12T13:21:35.857Z,23.38
2018-05-12T13:24:01.768Z,23.21
2018-05-12T13:26:27.676Z,23.58
2018-05-12T13:28:53.635Z,23.57
2018-05-12T13:31:19.570Z,23.59
2018-05-12T13:33:45.495Z,24.47
2018-05-12T13:36:11.431Z,25.19
2018-05-12T13:38:37.411Z,25.96
2018-05-12T13:41:03.323Z,26.53
2018-05-12T13:43:29.271Z,26.55
2018-05-12T13:45:55.384Z,26.94
2018-05-12T13:48:21.309Z,27.01
2018-05-12T13:50:47.265Z,27.49
2018-05-12T13:53:13.183Z,27.66
2018-05-12T13:55:39.198Z,27.80
2018-05-12T13:58:05.062Z,27.62
2018-05-12T14:00:31.053Z,27.96
2018-05-12T14:02:56.986Z,26.92
2018-05-12T14:05:22.958Z,26.56
2018-05-12T14:07:48.901Z,26.66
2018-05-12T14:10:14.853Z,26.99
2018-05-12T14:12:40.767Z,27.66
2018-05-12T14:15:06.706Z,27.64
2018-05-12T14:17:32.662Z,27.37
2018-05-12T14:19:58.597Z,27.73
2018-05-12T14:22:24.579Z,27.51
2018-05-12T14:24:50.491Z,27.41
2018-05-12T14:27:16.461Z,27.82
2018-05-12T14:29:42.387Z,28.23
2018-05-12T14:32:08.318Z,27.75
2018-05-12T14:34:34.304Z,28.26
2018-05-12T14:37:00.246Z,27.27
2018-05-12T14:39:26.201Z,27.83
2018-05-12T14:41:52.127Z,27.92
2018-05-12T14:44:18.051Z,27.63
2018-05-12T14:46:43.971Z,28.06
2018-05-12T14:49:09.908Z,28.32
2018-05-12T14:51:35.841Z,28.37
2018-05-12T14:54:01.780Z,27.86
2018-05-12T14:56:27.692Z,27.77
2018-05-12T14:58:53.620Z,26.81
2018-05-12T15:01:19.554Z,27.42
2018-05-12T15:03:45.523Z,27.70
2018-05-12T15:06:11.453Z,28.29
2018-05-12T15:08:37.388Z,27.95
2018-05-12T15:11:03.329Z,27.62
2018-05-12T15:13:29.241Z,27.51
2018-05-12T15:15:55.182Z,27.08
2018-05-12T15:18:21.100Z,26.45
2018-05-12T15:20:47.050Z,26.23
2018-05-12T15:23:12.989Z,26.48
2018-05-12T15:25:38.939Z,26.10
2018-05-12T15:28:04.878Z,26.03
2018-05-12T15:30:30.829Z,25.92
2018-05-12T15:32:56.758Z,26.10
2018-05-12T15:35:22.740Z,26.44
2018-05-12T15:37:48.679Z,26.55
2018-05-12T15:40:14.643Z,26.90
2018-05-12T15:42:40.587Z,26.80
2018-05-12T15:45:06.942Z,27.10
2018-05-12T15:47:32.887Z,26.73
2018-05-12T15:49:58.900Z,27.46
2018-05-12T15:52:24.829Z,27.57
2018-05-12T15:54:50.769Z,28.79
2018-05-12T15:57:16.730Z,28.97
2018-05-12T15:59:42.663Z,28.92
2018-05-12T16:02:08.575Z,28.91
2018-05-12T16:04:34.546Z,28.22
2018-05-12T16:07:00.467Z,28.88
2018-05-12T16:09:26.412Z,29.27
2018-05-12T16:11:52.331Z,29.29
2018-05-12T16:14:18.301Z,29.47
2018-05-12T16:16:44.250Z,29.74
2018-05-12T16:19:10.216Z,28.46
2018-05-12T16:21:36.213Z,28.65
2018-05-12T16:24:02.133Z,28.43
2018-05-12T16:26:28.091Z,27.69
2018-05-12T16:28:54.025Z,27.51
2018-05-12T16:31:20.004Z,28.49
2018-05-12T16:33:45.914Z,26.72
2018-05-12T16:36:11.850Z,26.48
2018-05-12T16:38:37.780Z,25.62
2018-05-12T16:41:03.746Z,25.27
2018-05-12T16:43:29.676Z,25.00
2018-05-12T16:45:55.604Z,24.83
2018-05-12T16:48:21.515Z,24.55
2018-05-12T16:50:47.619Z,24.20
2018-05-12T16:53:13.411Z,23.84
2018-05-12T16:55:39.354Z,23.87
2018-05-12T16:58:05.288Z,23.68
2018-05-12T17:00:31.224Z,23.73
2018-05-12T17:02:57.162Z,23.78
2018-05-12T17:05:23.084Z,23.94
2018-05-12T17:07:49.053Z,23.74
2018-05-12T17:10:14.986Z,24.12
2018-05-12T17:12:40.967Z,23.92
2018-05-12T17:15:06.891Z,23.69
2018-05-12T17:17:32.863Z,23.79
2018-05-12T17:19:58.778Z,23.87
2018-05-12T17:22:24.725Z,23.48
2018-05-12T17:24:50.663Z,23.43
2018-05-12T17:27:16.595Z,23.36
2018-05-12T17:29:42.590Z,23.18
2018-05-12T17:32:08.519Z,23.18
2018-05-12T17:34:34.465Z,23.09
2018-05-12T17:37:00.388Z,23.02
2018-05-12T17:39:26.348Z,22.98
2018-05-12T17:41:52.312Z,22.83
2018-05-12T17:44:18.339Z,22.61
2018-05-12T17:46:44.228Z,22.50
2018-05-12T17:49:11.014Z,22.53
2018-05-12T17:51:36.982Z,22.42
2018-05-12T17:54:02.910Z,22.27
2018-05-12T17:56:28.866Z,22.24
2018-05-12T17:58:54.816Z,22.20
2018-05-12T18:01:20.754Z,22.13
2018-05-12T18:03:46.748Z,21.95
2018-05-12T18:06:15.028Z,21.91
2018-05-12T18:08:40.957Z,21.73
2018-05-12T18:11:07.842Z,21.75
2018-05-12T18:13:33.772Z,21.69
2018-05-12T18:15:59.722Z,21.53
2018-05-12T18:18:25.694Z,21.55
2018-05-12T18:20:51.592Z,21.49
2018-05-12T18:23:17.537Z,21.48
2018-05-12T18:25:43.474Z,21.39
2018-05-12T18:28:09.462Z,21.29
2018-05-12T18:30:35.403Z,21.19
2018-05-12T18:33:01.359Z,21.08
2018-05-12T18:35:27.302Z,21.07
2018-05-12T18:37:53.246Z,21.02
2018-05-12T18:40:19.163Z,21.07
2018-05-12T18:42:45.101Z,20.92
2018-05-12T18:45:11.017Z,20.87
2018-05-12T18:47:36.967Z,20.80
2018-05-12T18:50:02.961Z,20.80
2018-05-12T18:52:28.871Z,20.72
2018-05-12T18:54:54.937Z,20.70
2018-05-12T18:57:20.869Z,20.61
2018-05-12T18:59:46.819Z,20.61
2018-05-12T19:02:12.757Z,20.61
2018-05-12T19:04:38.698Z,20.56
2018-05-12T19:07:04.654Z,20.52
2018-05-12T19:09:30.601Z,20.39
2018-05-12T19:11:56.581Z,20.28
2018-05-12T19:14:22.540Z,20.28
2018-05-12T19:16:48.492Z,20.26
2018-05-12T19:19:14.433Z,20.24
2018-05-12T19:21:40.393Z,20.24
2018-05-12T19:24:06.375Z,20.19
2018-05-12T19:26:32.340Z,20.16
2018-05-12T19:28:58.436Z,20.07
2018-05-12T19:31:24.394Z,20.06
2018-05-12T19:33:50.342Z,19.98
2018-05-12T19:36:16.325Z,20.00
2018-05-12T19:38:42.339Z,19.91
2018-05-12T19:41:08.307Z,19.86
2018-05-12T19:43:34.292Z,19.69
2018-05-12T19:46:00.222Z,19.69
2018-05-12T19:48:26.204Z,19.73
2018-05-12T19:50:52.126Z,19.67
2018-05-12T19:53:18.094Z,19.76
2018-05-12T19:55:44.056Z,19.63
2018-05-12T19:58:10.008Z,19.64
2018-05-12T20:00:35.958Z,19.68
2018-05-12T20:03:01.941Z,19.63
2018-05-12T20:05:27.868Z,19.60
2018-05-12T20:07:53.843Z,19.59
2018-05-12T20:10:19.849Z,19.61
2018-05-12T20:12:45.849Z,19.58
2018-05-12T20:15:11.811Z,19.55
2018-05-12T20:17:37.758Z,19.47
2018-05-12T20:20:03.831Z,19.46
2018-05-12T20:22:29.766Z,19.38
2018-05-12T20:24:55.781Z,19.50
2018-05-12T20:27:21.749Z,19.36
2018-05-12T20:29:48.689Z,19.32
2018-05-12T20:32:14.637Z,19.30
2018-05-12T20:34:40.591Z,19.37
2018-05-12T20:37:06.618Z,19.31
2018-05-12T20:39:32.520Z,19.36
2018-05-12T20:41:58.517Z,19.34
2018-05-12T20:44:24.465Z,19.37
2018-05-12T20:46:50.458Z,19.36
2018-05-12T20:49:16.383Z,19.31
2018-05-12T20:51:42.428Z,19.21
2018-05-12T20:54:08.400Z,19.21
2018-05-12T20:56:34.330Z,19.22
2018-05-12T20:59:00.255Z,19.20
2018-05-12T21:01:26.193Z,19.21
2018-05-12T21:03:52.189Z,19.29
2018-05-12T21:06:18.120Z,19.18
2018-05-12T21:08:44.073Z,19.14
2018-05-12T21:11:10.011Z,19.12
2018-05-12T21:13:35.971Z,19.15
2018-05-12T21:16:01.912Z,19.20
2018-05-12T21:18:27.902Z,19.03
2018-05-12T21:20:53.838Z,19.05
2018-05-12T21:23:19.774Z,19.11
2018-05-12T21:25:45.704Z,19.04
2018-05-12T21:28:11.647Z,19.03
2018-05-12T21:30:37.581Z,19.03
2018-05-12T21:33:03.498Z,18.94
2018-05-12T21:35:29.451Z,18.88
2018-05-12T21:37:55.422Z,18.98
2018-05-12T21:40:21.346Z,18.93
2018-05-12T21:42:47.260Z,18.97
2018-05-12T21:45:13.211Z,18.92
2018-05-12T21:47:39.922Z,18.91
2018-05-12T21:50:07.480Z,18.93
2018-05-12T21:52:33.427Z,18.91
2018-05-12T21:54:59.334Z,19.01
2018-05-12T21:57:25.285Z,19.00
2018-05-12T21:59:51.251Z,18.91
2018-05-12T22:02:17.219Z,18.93
2018-05-12T22:04:43.141Z,18.94
2018-05-12T22:07:09.073Z,18.95
2018-05-12T22:09:35.007Z,18.99
2018-05-12T22:12:00.915Z,19.03
2018-05-12T22:14:26.845Z,19.01
2018-05-12T22:16:52.791Z,18.87
2018-05-12T22:19:18.717Z,18.90
2018-05-12T22:21:44.665Z,18.88
2018-05-12T22:24:10.601Z,18.85
2018-05-12T22:26:36.524Z,18.87
2018-05-12T22:29:02.454Z,18.73
2018-05-12T22:31:28.389Z,18.73
2018-05-12T22:33:54.394Z,18.77
2018-05-12T22:36:20.316Z,18.78
2018-05-12T22:38:46.269Z,18.80
2018-05-12T22:41:12.218Z,18.81
2018-05-12T22:43:38.134Z,18.79
2018-05-12T22:46:04.062Z,18.69
2018-05-12T22:48:29.987Z,18.64
2018-05-12T22:50:55.922Z,18.63
2018-05-12T22:53:21.826Z,18.67
2018-05-12T22:55:47.726Z,18.50
2018-05-12T22:58:13.666Z,18.41
2018-05-12T23:00:39.596Z,18.32
2018-05-12T23:03:05.508Z,18.20
2018-05-12T23:05:31.453Z,18.31
2018-05-12T23:07:57.352Z,18.32
2018-05-12T23:10:23.285Z,18.18
2018-05-12T23:12:49.227Z,18.14
2018-05-12T23:15:15.166Z,18.19
2018-05-12T23:17:41.126Z,18.05
2018-05-12T23:20:07.044Z,18.05
2018-05-12T23:22:32.964Z,18.01
2018-05-12T23:24:58.949Z,17.91
2018-05-12T23:27:24.831Z,17.97
2018-05-12T23:29:50.742Z,17.97
2018-05-12T23:32:16.701Z,17.91
2018-05-12T23:34:42.641Z,17.92
2018-05-12T23:37:08.581Z,17.88
2018-05-12T23:39:34.523Z,17.92
2018-05-12T23:42:00.443Z,17.85
2018-05-12T23:44:26.378Z,17.62
2018-05-12T23:46:52.283Z,17.66
2018-05-12T23:49:18.209Z,17.62
2018-05-12T23:51:44.143Z,17.48
2018-05-12T23:54:10.064Z,17.32
2018-05-12T23:56:35.989Z,17.31
2018-05-12T23:59:01.937Z,17.30
